Time;durP1;ratioP1;P1;durP2;ratioP2;P2;SDS_P1;SDS_P2;PMS_P1;PMS_P2;Temp;Humidity;BMP_temperature;BMP_pressure;BME280_temperature;BME280_humidity;BME280_pressure;Samples;Min_cycle;Max_cycle;Signal;HPM_P1;HPM_P2
2023/03/15 00:00:43;;;;;;;;;;;;;;;1.86;100.00;101138.84;5001372;28;19928;-77
2023/03/15 00:03:09;;;;;;;;;;;;;;;1.96;100.00;101148.19;5024698;28;19925;-76
2023/03/15 00:05:34;;;;;;;;;;;;;;;1.98;100.00;101145.47;5020859;28;19922;-77
2023/03/15 00:08:00;;;;;;;;;;;;;;;1.95;100.00;101136.72;4999577;28;19972;-77
2023/03/15 00:10:26;;;;;;;;;;;;;;;1.87;100.00;101137.94;5021908;28;20016;-77
2023/03/15 00:12:51;;;;;;;;;;;;;;;1.74;100.00;101135.72;5028013;28;20435;-77
2023/03/15 00:15:16;;;;;;;;;;;;;;;1.60;100.00;101152.09;5017249;28;19930;-78
2023/03/15 00:17:41;;;;;;;;;;;;;;;1.62;100.00;101157.34;5006999;28;19959;-78
2023/03/15 00:20:07;;;;;;;;;;;;;;;1.58;100.00;101158.38;5017247;28;20003;-77
2023/03/15 00:22:32;;;;;;;;;;;;;;;1.67;100.00;101163.34;5002892;28;20625;-77
2023/03/15 00:24:58;;;;;;;;;;;;;;;1.52;100.00;101159.47;5022168;28;20185;-78
2023/03/15 00:27:23;;;;;;;;;;;;;;;1.54;100.00;101159.38;5014319;28;20332;-78
2023/03/15 00:29:48;;;;;;;;;;;;;;;1.54;100.00;101154.97;5022386;28;20035;-78
2023/03/15 00:32:13;;;;;;;;;;;;;;;1.59;100.00;101163.59;4993172;28;20165;-77
2023/03/15 00:34:38;;;;;;;;;;;;;;;1.65;100.00;101157.25;5026492;28;19956;-78
2023/03/15 00:37:04;;;;;;;;;;;;;;;1.51;100.00;101157.72;5021550;28;19956;-77
2023/03/15 00:39:29;;;;;;;;;;;;;;;1.47;100.00;101150.81;5018565;28;19972;-77
2023/03/15 00:41:55;;;;;;;;;;;;;;;1.37;100.00;101149.38;5014192;28;19925;-77
2023/03/15 00:44:21;;;;;;;;;;;;;;;1.25;100.00;101151.56;5008896;28;20114;-77
2023/03/15 00:46:46;;;;;;;;;;;;;;;1.32;100.00;101155.72;4999697;28;20016;-77
2023/03/15 00:49:12;;;;;;;;;;;;;;;1.38;100.00;101165.22;5022350;28;20257;-78
2023/03/15 00:51:37;;;;;;;;;;;;;;;1.28;100.00;101166.44;4993040;28;20374;-78
2023/03/15 00:54:02;;;;;;;;;;;;;;;1.32;100.00;101174.25;4989665;28;20157;-78
2023/03/15 00:56:29;;;;;;;;;;;;;;;1.36;100.00;101175.00;4988387;28;19965;-77
2023/03/15 00:58:54;;;;;;;;;;;;;;;1.32;100.00;101174.25;5005933;28;19920;-77
2023/03/15 01:01:21;;;;;;;;;;;;;;;1.31;100.00;101182.22;4985847;28;20366;-77
2023/03/15 01:03:46;;;;;;;;;;;;;;;1.33;100.00;101181.22;4991047;28;19930;-79
2023/03/15 01:06:16;;;;;;;;;;;;;;;1.40;100.00;101188.97;4993411;28;20101;-78
2023/03/15 01:08:41;;;;;;;;;;;;;;;1.29;100.00;101189.34;5008789;28;19963;-77
2023/03/15 01:11:07;;;;;;;;;;;;;;;1.40;100.00;101194.25;4989521;28;19921;-77
2023/03/15 01:13:33;;;;;;;;;;;;;;;1.46;100.00;101200.22;5000818;28;20377;-77
2023/03/15 01:15:58;;;;;;;;;;;;;;;1.47;100.00;101211.66;4982455;28;19925;-76
2023/03/15 01:18:23;;;;;;;;;;;;;;;1.45;100.00;101205.56;4986100;28;20367;-76
2023/03/15 01:20:48;;;;;;;;;;;;;;;1.48;100.00;101206.31;5003478;28;19920;-76
2023/03/15 01:23:14;;;;;;;;;;;;;;;1.46;100.00;101207.28;5006776;28;19953;-76
2023/03/15 01:25:39;;;;;;;;;;;;;;;1.48;100.00;101221.34;5022257;28;19928;-77
2023/03/15 01:28:04;;;;;;;;;;;;;;;1.49;100.00;101220.44;4987804;28;19928;-77
2023/03/15 01:30:29;;;;;;;;;;;;;;;1.34;100.00;101217.38;4987911;28;19932;-77
2023/03/15 01:32:55;;;;;;;;;;;;;;;1.28;100.00;101214.06;4989535;28;19928;-77
2023/03/15 01:35:20;;;;;;;;;;;;;;;1.19;100.00;101220.53;5001797;28;19965;-76
2023/03/15 01:37:48;;;;;;;;;;;;;;;1.15;100.00;101218.88;4983838;28;19968;-77
2023/03/15 01:40:13;;;;;;;;;;;;;;;1.03;100.00;101226.31;5001163;28;19971;-78
2023/03/15 01:42:51;;;;;;;;;;;;;;;1.00;100.00;101226.41;5001345;28;19921;-77
2023/03/15 01:45:35;;;;;;;;;;;;;;;0.86;100.00;101216.28;5001915;28;19921;-77
2023/03/15 01:48:01;;;;;;;;;;;;;;;0.71;100.00;101222.00;5017234;28;19921;-80
2023/03/15 01:50:26;;;;;;;;;;;;;;;0.59;100.00;101223.25;5006410;28;19923;-79
2023/03/15 01:52:52;;;;;;;;;;;;;;;0.53;100.00;101234.88;4990000;28;19952;-76
2023/03/15 01:55:18;;;;;;;;;;;;;;;0.55;100.00;101222.47;4979839;28;20008;-76
2023/03/15 01:57:54;;;;;;;;;;;;;;;0.59;100.00;101225.88;4981680;28;20418;-77
2023/03/15 02:00:20;;;;;;;;;;;;;;;0.56;100.00;101221.56;5007500;28;19927;-76
2023/03/15 02:03:06;;;;;;;;;;;;;;;0.65;100.00;101227.50;5000864;28;19921;-78
2023/03/15 02:05:36;;;;;;;;;;;;;;;0.63;100.00;101221.41;4983543;28;19929;-76
2023/03/15 02:08:01;;;;;;;;;;;;;;;0.64;100.00;101223.13;5004426;28;19921;-76
2023/03/15 02:10:30;;;;;;;;;;;;;;;0.67;100.00;101228.28;4986475;28;20524;-76
2023/03/15 02:12:56;;;;;;;;;;;;;;;0.73;100.00;101228.13;4998444;28;19979;-77
2023/03/15 02:15:21;;;;;;;;;;;;;;;0.74;100.00;101229.84;5007044;28;20371;-80
2023/03/15 02:17:46;;;;;;;;;;;;;;;0.78;100.00;101234.13;4998622;28;20032;-77
2023/03/15 02:20:26;;;;;;;;;;;;;;;0.77;100.00;101229.75;4998891;28;20024;-76
2023/03/15 02:22:55;;;;;;;;;;;;;;;0.89;100.00;101229.41;5001258;28;20283;-76
2023/03/15 02:25:35;;;;;;;;;;;;;;;0.88;100.00;101226.78;4997030;28;19963;-77
2023/03/15 02:28:01;;;;;;;;;;;;;;;0.78;100.00;101220.91;5014779;28;19922;-78
2023/03/15 02:30:26;;;;;;;;;;;;;;;0.81;100.00;101228.75;4999993;28;19928;-77
2023/03/15 02:32:51;;;;;;;;;;;;;;;0.85;100.00;101235.69;4984066;28;19985;-77
2023/03/15 02:35:27;;;;;;;;;;;;;;;0.85;100.00;101237.44;4997877;28;20024;-77
2023/03/15 02:37:52;;;;;;;;;;;;;;;0.84;100.00;101233.94;4997698;28;20350;-77
2023/03/15 02:40:19;;;;;;;;;;;;;;;0.87;100.00;101236.50;5014734;28;20023;-77
2023/03/15 02:42:44;;;;;;;;;;;;;;;0.85;100.00;101240.97;4988988;28;19929;-77
2023/03/15 02:45:09;;;;;;;;;;;;;;;0.80;100.00;101242.00;5000776;28;19921;-78
2023/03/15 02:47:35;;;;;;;;;;;;;;;0.87;100.00;101252.38;4985057;28;20033;-76
2023/03/15 02:50:00;;;;;;;;;;;;;;;0.84;100.00;101251.56;4984897;28;20690;-77
2023/03/15 02:52:25;;;;;;;;;;;;;;;0.91;100.00;101254.91;4999668;28;20403;-77
2023/03/15 02:54:50;;;;;;;;;;;;;;;0.88;100.00;101263.78;4984392;28;20452;-77
2023/03/15 02:57:17;;;;;;;;;;;;;;;0.96;100.00;101266.19;5001158;28;20370;-77
2023/03/15 02:59:42;;;;;;;;;;;;;;;0.98;100.00;101273.19;4986917;28;19945;-78
2023/03/15 03:02:10;;;;;;;;;;;;;;;1.01;100.00;101267.81;4994842;28;20332;-77
2023/03/15 03:04:35;;;;;;;;;;;;;;;1.05;100.00;101279.16;5003393;28;19924;-77
2023/03/15 03:07:00;;;;;;;;;;;;;;;1.06;100.00;101283.53;4999650;28;19921;-77
2023/03/15 03:09:26;;;;;;;;;;;;;;;1.11;100.00;101291.31;5004047;28;20331;-77
2023/03/15 03:11:51;;;;;;;;;;;;;;;1.18;100.00;101287.56;4984678;28;20299;-77
2023/03/15 03:14:17;;;;;;;;;;;;;;;1.15;100.00;101285.00;4988739;28;19921;-79
2023/03/15 03:16:42;;;;;;;;;;;;;;;1.13;100.00;101289.47;5015656;28;20088;-78
2023/03/15 03:19:08;;;;;;;;;;;;;;;1.11;100.00;101296.59;5000340;28;19971;-77
2023/03/15 03:21:33;;;;;;;;;;;;;;;1.00;100.00;101303.09;5001780;28;20016;-78
2023/03/15 03:23:58;;;;;;;;;;;;;;;0.94;100.00;101313.84;5000669;28;19967;-77
2023/03/15 03:26:26;;;;;;;;;;;;;;;0.86;100.00;101315.84;4985457;28;20020;-77
2023/03/15 03:28:52;;;;;;;;;;;;;;;0.85;100.00;101320.28;5001597;28;20016;-77
2023/03/15 03:31:19;;;;;;;;;;;;;;;0.80;100.00;101321.31;4987924;28;20382;-79
2023/03/15 03:33:45;;;;;;;;;;;;;;;0.81;100.00;101326.56;4985684;28;19921;-77
2023/03/15 03:36:11;;;;;;;;;;;;;;;0.70;100.00;101328.66;4994158;28;20010;-77
2023/03/15 03:38:38;;;;;;;;;;;;;;;0.67;100.00;101326.97;4985174;28;20093;-77
2023/03/15 03:41:03;;;;;;;;;;;;;;;0.65;100.00;101331.44;4983298;28;19968;-77
2023/03/15 03:43:29;;;;;;;;;;;;;;;0.64;100.00;101342.91;4990090;28;19921;-78
2023/03/15 03:45:54;;;;;;;;;;;;;;;0.56;100.00;101347.53;4998227;28;19956;-79
2023/03/15 03:48:19;;;;;;;;;;;;;;;0.59;100.00;101350.09;4987328;28;19921;-78
2023/03/15 03:50:44;;;;;;;;;;;;;;;0.62;100.00;101349.16;4999641;28;19971;-78
2023/03/15 03:53:10;;;;;;;;;;;;;;;0.59;100.00;101358.91;4982956;28;20000;-78
2023/03/15 03:55:36;;;;;;;;;;;;;;;0.57;100.00;101360.72;4994581;28;19925;-77
2023/03/15 03:58:02;;;;;;;;;;;;;;;0.53;100.00;101369.63;4984037;28;19963;-77
2023/03/15 04:00:27;;;;;;;;;;;;;;;0.52;100.00;101367.91;4981178;28;20408;-78
2023/03/15 04:02:53;;;;;;;;;;;;;;;0.53;100.00;101374.06;4984926;28;20403;-77
2023/03/15 04:05:18;;;;;;;;;;;;;;;0.51;100.00;101373.25;4998778;28;20659;-77
2023/03/15 04:07:43;;;;;;;;;;;;;;;0.54;100.00;101370.50;5002189;28;19925;-78
2023/03/15 04:10:13;;;;;;;;;;;;;;;0.58;100.00;101375.66;4998845;28;19921;-78
2023/03/15 04:12:38;;;;;;;;;;;;;;;0.57;100.00;101383.63;4994048;28;20380;-77
2023/03/15 04:15:04;;;;;;;;;;;;;;;0.58;100.00;101378.31;5000460;28;20020;-78
2023/03/15 04:17:29;;;;;;;;;;;;;;;0.53;100.00;101385.50;5010703;28;20444;-78
2023/03/15 04:19:54;;;;;;;;;;;;;;;0.46;100.00;101398.91;4999038;28;20393;-78
2023/03/15 04:22:19;;;;;;;;;;;;;;;0.47;100.00;101396.22;4980336;28;19917;-77
2023/03/15 04:24:44;;;;;;;;;;;;;;;0.47;100.00;101395.38;4998781;28;19921;-77
2023/03/15 04:27:13;;;;;;;;;;;;;;;0.46;100.00;101397.13;4998758;28;19967;-77
2023/03/15 04:29:38;;;;;;;;;;;;;;;0.38;100.00;101397.34;4991723;28;20304;-78
2023/03/15 04:32:04;;;;;;;;;;;;;;;0.36;100.00;101407.06;5003223;28;20390;-78
2023/03/15 04:34:29;;;;;;;;;;;;;;;0.31;100.00;101408.97;5018547;28;19929;-78
2023/03/15 04:36:54;;;;;;;;;;;;;;;0.36;100.00;101408.88;5002708;28;19960;-77
2023/03/15 04:39:20;;;;;;;;;;;;;;;0.32;100.00;101423.91;5000755;28;19967;-78
2023/03/15 04:41:45;;;;;;;;;;;;;;;0.29;100.00;101424.88;4985613;28;20253;-78
2023/03/15 04:44:10;;;;;;;;;;;;;;;0.30;100.00;101425.72;5018242;28;19940;-78
2023/03/15 04:46:35;;;;;;;;;;;;;;;0.31;100.00;101434.53;4999718;28;20450;-78
2023/03/15 04:49:02;;;;;;;;;;;;;;;0.34;100.00;101432.66;4986840;28;19925;-78
2023/03/15 04:51:27;;;;;;;;;;;;;;;0.37;100.00;101429.94;5003502;28;20017;-78
2023/03/15 04:53:52;;;;;;;;;;;;;;;0.38;100.00;101436.09;5001420;28;20284;-78
2023/03/15 04:56:17;;;;;;;;;;;;;;;0.29;100.00;101432.78;5000049;28;20003;-78
2023/03/15 04:58:43;;;;;;;;;;;;;;;0.27;100.00;101436.34;4988318;28;20018;-78
2023/03/15 05:01:08;;;;;;;;;;;;;;;0.34;100.00;101440.59;5001581;28;20470;-78
2023/03/15 05:03:33;;;;;;;;;;;;;;;0.37;100.00;101435.22;4984880;28;20342;-77
2023/03/15 05:06:00;;;;;;;;;;;;;;;0.31;100.00;101440.66;4999491;28;20372;-78
2023/03/15 05:08:25;;;;;;;;;;;;;;;0.37;100.00;101452.88;5019688;28;19925;-78
2023/03/15 05:10:51;;;;;;;;;;;;;;;0.36;100.00;101457.28;4992439;28;19971;-77
2023/03/15 05:13:17;;;;;;;;;;;;;;;0.33;100.00;101456.50;4998720;28;19999;-78
2023/03/15 05:15:43;;;;;;;;;;;;;;;0.31;100.00;101459.16;5015912;28;20317;-78
2023/03/15 05:18:08;;;;;;;;;;;;;;;0.28;100.00;101457.47;4994486;28;20042;-78
2023/03/15 05:20:33;;;;;;;;;;;;;;;0.23;100.00;101462.00;4997400;28;20330;-78
2023/03/15 05:22:58;;;;;;;;;;;;;;;0.20;100.00;101469.97;4981680;28;20654;-78
2023/03/15 05:25:23;;;;;;;;;;;;;;;0.20;100.00;101469.13;4995612;28;20442;-78
2023/03/15 05:27:49;;;;;;;;;;;;;;;0.03;100.00;101443.13;4981079;28;19932;-78
2023/03/15 05:30:15;;;;;;;;;;;;;;;0.22;100.00;101475.25;4984362;28;19967;-78
2023/03/15 05:32:43;;;;;;;;;;;;;;;0.22;100.00;101478.75;5001836;28;19971;-78
2023/03/15 05:35:08;;;;;;;;;;;;;;;0.20;100.00;101472.63;5013819;28;19925;-78
2023/03/15 05:37:34;;;;;;;;;;;;;;;0.23;100.00;101479.63;4986902;28;19921;-78
2023/03/15 05:40:00;;;;;;;;;;;;;;;0.24;100.00;101481.34;4990343;28;20012;-78
2023/03/15 05:42:25;;;;;;;;;;;;;;;0.17;100.00;101480.63;4997876;28;19917;-78
2023/03/15 05:44:51;;;;;;;;;;;;;;;0.16;100.00;101485.94;5018399;28;19917;-78
2023/03/15 05:47:16;;;;;;;;;;;;;;;0.15;100.00;101498.28;4999630;28;19921;-78
2023/03/15 05:49:42;;;;;;;;;;;;;;;0.14;100.00;101496.53;5007039;28;19921;-78
2023/03/15 05:52:07;;;;;;;;;;;;;;;0.11;100.00;101499.28;5006794;28;20348;-78
2023/03/15 05:54:32;;;;;;;;;;;;;;;0.09;100.00;101507.22;5004765;28;20355;-78
2023/03/15 05:56:57;;;;;;;;;;;;;;;0.06;100.00;101514.34;5007085;28;19964;-78
2023/03/15 05:59:23;;;;;;;;;;;;;;;0.03;100.00;101512.63;4999551;28;20019;-78
2023/03/15 06:01:48;;;;;;;;;;;;;;;0.04;100.00;101521.44;5014758;28;20339;-78
2023/03/15 06:04:13;;;;;;;;;;;;;;;0.08;100.00;101525.75;5020663;28;19926;-78
2023/03/15 06:06:38;;;;;;;;;;;;;;;0.07;100.00;101532.78;5021711;28;20264;-78
2023/03/15 06:09:03;;;;;;;;;;;;;;;0.07;100.00;101532.78;5000406;28;20465;-78
2023/03/15 06:11:29;;;;;;;;;;;;;;;0.12;100.00;101538.84;5016500;28;20711;-78
2023/03/15 06:13:54;;;;;;;;;;;;;;;0.10;100.00;101538.00;5004734;28;20438;-78
2023/03/15 06:16:19;;;;;;;;;;;;;;;0.19;100.00;101539.56;5001747;28;19929;-78
2023/03/15 06:18:44;;;;;;;;;;;;;;;0.19;100.00;101552.75;4993408;28;19921;-78
2023/03/15 06:21:09;;;;;;;;;;;;;;;0.23;100.00;101550.94;5005114;28;20011;-78
2023/03/15 06:23:35;;;;;;;;;;;;;;;0.28;100.00;101549.91;4988512;28;19925;-78
2023/03/15 06:26:00;;;;;;;;;;;;;;;0.30;100.00;101552.50;4999962;28;20265;-78
2023/03/15 06:28:25;;;;;;;;;;;;;;;0.41;100.00;101554.91;5001938;28;20269;-78
2023/03/15 06:30:50;;;;;;;;;;;;;;;0.46;100.00;101552.16;4984355;28;20494;-78
2023/03/15 06:33:15;;;;;;;;;;;;;;;0.51;100.00;101556.41;4986892;28;20406;-78
2023/03/15 06:35:41;;;;;;;;;;;;;;;0.62;100.00;101558.81;4978957;28;19976;-78
2023/03/15 06:38:08;;;;;;;;;;;;;;;0.70;100.00;101566.53;4979222;28;20293;-78
2023/03/15 06:40:33;;;;;;;;;;;;;;;0.71;100.00;101569.16;4988219;28;19931;-78
2023/03/15 06:43:04;;;;;;;;;;;;;;;0.80;100.00;101580.38;4990163;28;19921;-78
2023/03/15 06:45:30;;;;;;;;;;;;;;;0.83;100.00;101575.03;4981554;28;19925;-79
2023/03/15 06:47:55;;;;;;;;;;;;;;;0.94;100.00;101580.91;5007320;28;20418;-78
2023/03/15 06:50:21;;;;;;;;;;;;;;;0.99;100.00;101589.63;5005409;28;19960;-78
2023/03/15 06:52:46;;;;;;;;;;;;;;;1.04;100.00;101595.66;4998630;28;20032;-78
2023/03/15 06:55:16;;;;;;;;;;;;;;;1.21;100.00;101607.56;5017512;28;19921;-79
2023/03/15 06:57:41;;;;;;;;;;;;;;;1.48;100.00;101608.59;5013181;28;19922;-79
2023/03/15 07:00:10;;;;;;;;;;;;;;;1.63;100.00;101612.59;5003951;28;19951;-79
2023/03/15 07:02:36;;;;;;;;;;;;;;;1.76;100.00;101615.75;4989305;28;19929;-79
2023/03/15 07:05:01;;;;;;;;;;;;;;;2.02;100.00;101626.53;5002837;28;19921;-79
2023/03/15 07:07:26;;;;;;;;;;;;;;;2.21;100.00;101632.16;5020608;28;19927;-79
2023/03/15 07:09:52;;;;;;;;;;;;;;;2.40;100.00;101643.03;5021320;28;20054;-79
2023/03/15 07:12:17;;;;;;;;;;;;;;;2.53;100.00;101639.09;5000737;28;20369;-79
2023/03/15 07:14:42;;;;;;;;;;;;;;;2.55;100.00;101647.88;4999799;28;20434;-78
2023/03/15 07:17:07;;;;;;;;;;;;;;;2.58;100.00;101649.56;4983050;28;20641;-79
2023/03/15 07:19:32;;;;;;;;;;;;;;;2.57;100.00;101665.53;4999244;28;20394;-78
2023/03/15 07:21:58;;;;;;;;;;;;;;;2.54;100.00;101659.41;5007718;28;20103;-78
2023/03/15 07:24:23;;;;;;;;;;;;;;;2.65;100.00;101669.66;4999199;28;19936;-78
2023/03/15 07:26:53;;;;;;;;;;;;;;;2.91;100.00;101673.28;5011105;28;20161;-78
2023/03/15 07:29:18;;;;;;;;;;;;;;;3.02;100.00;101667.63;5015824;28;20724;-77
2023/03/15 07:31:43;;;;;;;;;;;;;;;3.20;100.00;101668.81;5021260;28;20219;-78
2023/03/15 07:34:09;;;;;;;;;;;;;;;3.38;100.00;101640.75;5000694;28;19975;-78
2023/03/15 07:36:34;;;;;;;;;;;;;;;3.59;100.00;101675.44;5015222;28;20544;-78
2023/03/15 07:39:00;;;;;;;;;;;;;;;4.00;100.00;101667.75;5020069;28;20007;-78
2023/03/15 07:41:25;;;;;;;;;;;;;;;4.20;100.00;101675.00;5014349;28;20779;-78
2023/03/15 07:43:51;;;;;;;;;;;;;;;4.28;100.00;101674.69;5025755;28;19940;-78
2023/03/15 07:46:16;;;;;;;;;;;;;;;4.46;100.00;101680.25;5015519;28;19976;-78
2023/03/15 07:48:41;;;;;;;;;;;;;;;4.47;100.00;101684.66;4994191;28;20350;-77
2023/03/15 07:51:06;;;;;;;;;;;;;;;4.59;100.00;101683.31;4997101;28;19922;-78
2023/03/15 07:53:31;;;;;;;;;;;;;;;4.82;100.00;101684.19;5014256;28;19979;-78
2023/03/15 07:55:57;;;;;;;;;;;;;;;4.91;100.00;101692.66;5013635;28;20051;-78
2023/03/15 07:58:22;;;;;;;;;;;;;;;5.01;100.00;101694.97;5017548;28;20030;-78
2023/03/15 08:00:47;;;;;;;;;;;;;;;5.00;100.00;101694.06;5015659;28;19925;-78
2023/03/15 08:03:12;;;;;;;;;;;;;;;5.13;100.00;101701.56;5025004;28;19987;-78
2023/03/15 08:05:38;;;;;;;;;;;;;;;5.14;100.00;101705.97;5020990;28;20307;-77
2023/03/15 08:08:04;;;;;;;;;;;;;;;5.32;100.00;101709.66;4992666;28;20474;-78
2023/03/15 08:10:29;;;;;;;;;;;;;;;5.47;100.00;101717.00;4998683;28;20283;-77
2023/03/15 08:12:54;;;;;;;;;;;;;;;5.48;100.00;101715.19;5002123;28;20273;-78
2023/03/15 08:15:19;;;;;;;;;;;;;;;5.60;100.00;101720.03;5016522;28;19925;-78
2023/03/15 08:17:48;;;;;;;;;;;;;;;5.91;100.00;101724.03;5003529;28;19956;-78
2023/03/15 08:20:16;;;;;;;;;;;;;;;6.15;100.00;101726.56;4991751;28;19924;-78
2023/03/15 08:22:43;;;;;;;;;;;;;;;6.03;100.00;101727.97;5004031;28;19921;-78
2023/03/15 08:25:09;;;;;;;;;;;;;;;6.19;100.00;101730.81;4996757;28;20425;-78
2023/03/15 08:27:34;;;;;;;;;;;;;;;6.33;100.00;101740.88;5003736;28;19932;-78
2023/03/15 08:30:00;;;;;;;;;;;;;;;6.43;100.00;101735.97;4999191;28;20287;-78
2023/03/15 08:32:25;;;;;;;;;;;;;;;6.74;100.00;101747.88;4984707;28;20017;-78
2023/03/15 08:34:51;;;;;;;;;;;;;;;6.98;100.00;101756.50;5002335;28;20556;-78
2023/03/15 08:37:17;;;;;;;;;;;;;;;7.07;100.00;101752.53;5026240;28;19932;-78
2023/03/15 08:39:42;;;;;;;;;;;;;;;7.29;100.00;101754.16;5007846;28;19925;-78
2023/03/15 08:42:08;;;;;;;;;;;;;;;7.59;100.00;101758.91;4988911;28;19960;-78
2023/03/15 08:44:33;;;;;;;;;;;;;;;7.94;100.00;101758.91;4986613;28;19932;-78
2023/03/15 08:46:58;;;;;;;;;;;;;;;8.25;100.00;101765.34;4982230;28;19930;-77
2023/03/15 08:49:24;;;;;;;;;;;;;;;7.56;100.00;101765.28;4989171;28;19961;-78
2023/03/15 08:51:49;;;;;;;;;;;;;;;7.75;100.00;101770.56;4992140;28;19920;-78
2023/03/15 08:54:15;;;;;;;;;;;;;;;7.66;100.00;101765.69;5007517;28;19928;-78
2023/03/15 08:56:40;;;;;;;;;;;;;;;7.51;100.00;101764.63;5000866;28;19925;-78
2023/03/15 08:59:06;;;;;;;;;;;;;;;7.88;100.00;101765.47;5001796;28;19917;-78
2023/03/15 09:01:31;;;;;;;;;;;;;;;8.32;100.00;101777.44;4982374;28;19921;-78
2023/03/15 09:03:56;;;;;;;;;;;;;;;8.58;100.00;101774.31;5006267;28;20276;-78
2023/03/15 09:06:21;;;;;;;;;;;;;;;8.87;100.00;101774.53;5001027;28;19921;-77
2023/03/15 09:08:46;;;;;;;;;;;;;;;9.13;98.24;101778.44;4986922;28;19968;-78
2023/03/15 09:11:12;;;;;;;;;;;;;;;8.69;99.66;101779.97;5004561;28;20010;-78
2023/03/15 09:13:37;;;;;;;;;;;;;;;8.75;99.66;101781.44;5003648;28;20010;-79
2023/03/15 09:16:03;;;;;;;;;;;;;;;8.55;93.47;101783.41;4985331;28;19969;-78
2023/03/15 09:18:28;;;;;;;;;;;;;;;8.93;95.76;101784.91;4991527;28;20108;-77
2023/03/15 09:20:53;;;;;;;;;;;;;;;9.03;93.28;101780.75;4980268;28;19944;-78
2023/03/15 09:23:18;;;;;;;;;;;;;;;8.88;87.65;101786.97;5013143;28;19921;-78
2023/03/15 09:25:43;;;;;;;;;;;;;;;8.86;87.92;101776.38;5004543;28;19960;-78
2023/03/15 09:28:10;;;;;;;;;;;;;;;9.21;89.92;101786.88;5007875;28;19975;-78
2023/03/15 09:30:35;;;;;;;;;;;;;;;9.86;87.28;101779.56;4989314;28;19925;-77
2023/03/15 09:33:00;;;;;;;;;;;;;;;10.19;73.53;101782.06;4999915;28;19978;-78
2023/03/15 09:35:26;;;;;;;;;;;;;;;9.62;69.98;101776.56;4981456;28;20007;-79
2023/03/15 09:37:51;;;;;;;;;;;;;;;9.53;71.37;101784.16;5006673;28;19925;-78
2023/03/15 09:40:16;;;;;;;;;;;;;;;9.93;75.82;101780.94;4989066;28;20015;-78
2023/03/15 09:43:01;;;;;;;;;;;;;;;9.82;71.76;101786.06;5004839;28;20364;-78
2023/03/15 09:45:29;;;;;;;;;;;;;;;10.09;69.36;101780.88;5011244;28;20260;-79
2023/03/15 09:48:13;;;;;;;;;;;;;;;9.38;69.75;101785.91;4987205;28;19968;-78
2023/03/15 09:50:44;;;;;;;;;;;;;;;8.96;73.10;101782.91;5004416;28;20334;-79
2023/03/15 09:53:17;;;;;;;;;;;;;;;8.54;74.49;101789.69;5007495;28;20020;-79
2023/03/15 09:55:42;;;;;;;;;;;;;;;8.45;74.95;101791.03;4987562;28;20677;-78
2023/03/15 09:58:34;;;;;;;;;;;;;;;8.53;75.14;101787.97;4984801;28;19928;-78
2023/03/15 10:01:02;;;;;;;;;;;;;;;8.53;75.22;101796.00;5013449;28;20295;-78
2023/03/15 10:03:30;;;;;;;;;;;;;;;8.36;73.58;101796.88;5006053;28;19921;-78
2023/03/15 10:05:56;;;;;;;;;;;;;;;8.43;70.76;101795.59;5004458;28;20402;-78
2023/03/15 10:08:22;;;;;;;;;;;;;;;8.95;69.07;101796.41;5000731;28;19921;-78
2023/03/15 10:10:47;;;;;;;;;;;;;;;8.95;71.61;101797.25;5001909;28;19925;-78
2023/03/15 10:13:41;;;;;;;;;;;;;;;9.33;65.34;101795.19;5005209;28;19917;-78
2023/03/15 10:16:11;;;;;;;;;;;;;;;9.48;69.12;101796.13;4979836;28;19926;-78
2023/03/15 10:18:49;;;;;;;;;;;;;;;9.19;62.91;101793.28;5012103;28;19921;-79
2023/03/15 10:21:38;;;;;;;;;;;;;;;10.02;65.48;101793.81;4990282;28;20020;-79
2023/03/15 10:24:04;;;;;;;;;;;;;;;10.93;61.61;101795.38;5010650;28;19932;-78
2023/03/15 10:26:31;;;;;;;;;;;;;;;11.43;54.72;101797.56;4983928;28;20363;-79
2023/03/15 10:28:56;;;;;;;;;;;;;;;10.59;54.86;101800.25;4987707;28;19921;-79
2023/03/15 10:31:23;;;;;;;;;;;;;;;9.68;55.94;101795.81;4986513;28;19928;-78
2023/03/15 10:33:48;;;;;;;;;;;;;;;9.68;55.47;101803.84;4983354;28;19929;-78
2023/03/15 10:36:21;;;;;;;;;;;;;;;11.13;54.92;101803.13;4995325;28;19940;-78
2023/03/15 10:38:47;;;;;;;;;;;;;;;10.79;50.49;101809.69;4986412;28;19929;-78
2023/03/15 10:41:13;;;;;;;;;;;;;;;10.40;52.40;101805.88;4988858;28;20284;-79
2023/03/15 10:43:40;;;;;;;;;;;;;;;9.57;53.94;101814.34;4995974;28;19948;-79
2023/03/15 10:46:05;;;;;;;;;;;;;;;9.59;55.65;101815.13;4981056;28;19921;-79
2023/03/15 10:48:34;;;;;;;;;;;;;;;9.55;56.20;101822.47;5019444;28;19921;-79
2023/03/15 10:51:00;;;;;;;;;;;;;;;9.36;55.34;101819.13;5004959;28;19921;-78
2023/03/15 10:53:25;;;;;;;;;;;;;;;9.21;54.55;101818.19;4998675;28;20390;-78
2023/03/15 10:56:04;;;;;;;;;;;;;;;9.17;55.29;101817.47;4986782;28;19971;-79
2023/03/15 10:58:38;;;;;;;;;;;;;;;9.17;55.98;101819.31;4983197;28;19926;-79
2023/03/15 11:01:08;;;;;;;;;;;;;;;9.74;57.19;101822.28;4996191;28;20028;-79
2023/03/15 11:03:34;;;;;;;;;;;;;;;10.97;53.38;101827.44;5000954;28;19963;-79
2023/03/15 11:05:59;;;;;;;;;;;;;;;12.26;49.06;101827.94;4979756;28;20367;-79
2023/03/15 11:08:36;;;;;;;;;;;;;;;13.57;46.80;101833.03;4978954;28;19924;-78
2023/03/15 11:11:01;;;;;;;;;;;;;;;14.64;45.15;101828.41;4995776;28;19921;-79
2023/03/15 11:13:30;;;;;;;;;;;;;;;14.17;40.92;101824.91;5019249;28;19917;-79
2023/03/15 11:16:02;;;;;;;;;;;;;;;14.84;42.88;101826.81;5003392;28;19925;-79
2023/03/15 11:18:42;;;;;;;;;;;;;;;15.80;42.58;101828.94;5009192;28;19920;-78
2023/03/15 11:21:08;;;;;;;;;;;;;;;16.53;39.46;101839.03;4989440;28;20371;-79
2023/03/15 11:23:35;;;;;;;;;;;;;;;16.94;37.88;101850.78;4997979;28;19925;-78
2023/03/15 11:26:00;;;;;;;;;;;;;;;16.44;37.85;101848.81;5001543;28;20016;-80
2023/03/15 11:28:27;;;;;;;;;;;;;;;17.13;37.42;101848.28;4991105;28;20478;-79
2023/03/15 11:30:52;;;;;;;;;;;;;;;16.98;35.38;101850.53;4986632;28;19924;-79
2023/03/15 11:33:22;;;;;;;;;;;;;;;17.61;35.36;101847.53;4997758;28;19921;-79
2023/03/15 11:35:48;;;;;;;;;;;;;;;17.48;33.95;101847.81;4979229;28;19952;-79
2023/03/15 11:38:16;;;;;;;;;;;;;;;15.77;39.51;101847.31;5005506;28;20299;-78
2023/03/15 11:40:42;;;;;;;;;;;;;;;14.77;41.17;101851.78;5005472;28;19921;-79
2023/03/15 11:43:10;;;;;;;;;;;;;;;13.33;45.49;101844.63;5010117;28;19921;-80
2023/03/15 11:45:38;;;;;;;;;;;;;;;12.84;43.30;101839.13;5009186;28;19921;-79
2023/03/15 11:48:07;;;;;;;;;;;;;;;13.98;42.13;101838.97;5012283;28;20626;-79
2023/03/15 11:50:32;;;;;;;;;;;;;;;15.14;38.38;101836.13;4994985;28;20376;-79
2023/03/15 11:53:02;;;;;;;;;;;;;;;15.55;36.43;101832.88;4992653;28;19966;-80
2023/03/15 11:55:27;;;;;;;;;;;;;;;15.37;35.09;101837.94;4995026;28;19921;-79
2023/03/15 11:57:52;;;;;;;;;;;;;;;15.34;37.61;101830.97;5014385;28;20002;-81
2023/03/15 12:00:20;;;;;;;;;;;;;;;13.86;40.75;101838.06;5011583;28;19917;-78
2023/03/15 12:02:56;;;;;;;;;;;;;;;13.09;39.03;101836.50;4993978;28;20348;-79
2023/03/15 12:05:40;;;;;;;;;;;;;;;14.24;37.93;101832.41;5008290;28;20457;-79
2023/03/15 12:08:20;;;;;;;;;;;;;;;14.17;40.03;101833.84;5023678;28;19960;-79
2023/03/15 12:10:45;;;;;;;;;;;;;;;13.93;40.84;101828.50;5009142;28;19925;-79
2023/03/15 12:13:24;;;;;;;;;;;;;;;13.27;45.25;101831.59;4983969;28;19929;-78
2023/03/15 12:15:50;;;;;;;;;;;;;;;13.27;42.62;101821.66;5009833;28;19924;-79
2023/03/15 12:18:16;;;;;;;;;;;;;;;13.55;41.72;101833.13;5014431;28;20307;-79
2023/03/15 12:20:44;;;;;;;;;;;;;;;13.01;43.46;101823.56;5009515;28;19925;-78
2023/03/15 12:23:15;;;;;;;;;;;;;;;14.21;39.45;101829.06;5005860;28;19960;-79
2023/03/15 12:25:43;;;;;;;;;;;;;;;14.08;40.13;101827.34;5025672;28;19966;-79
2023/03/15 12:28:16;;;;;;;;;;;;;;;13.80;39.35;101829.44;5012609;28;19921;-79
2023/03/15 12:30:42;;;;;;;;;;;;;;;13.83;38.06;101832.88;5005959;28;20449;-79
2023/03/15 12:33:14;;;;;;;;;;;;;;;14.14;38.70;101826.00;5004856;28;19921;-80
2023/03/15 12:35:40;;;;;;;;;;;;;;;14.52;39.55;101826.66;5025928;28;19925;-78